createdAt,value
2018-03-03T00:00:20.444Z,1028.35
2018-03-03T00:01:20.424Z,1028.26
2018-03-03T00:02:20.402Z,1028.31
2018-03-03T00:03:20.382Z,1028.33
2018-03-03T00:04:20.362Z,1028.31
2018-03-03T00:05:20.342Z,1028.32
2018-03-03T00:06:20.321Z,1028.32
2018-03-03T00:07:20.300Z,1028.29
2018-03-03T00:08:20.280Z,1028.34
2018-03-03T00:09:20.259Z,1028.31
2018-03-03T00:10:20.237Z,1028.32
2018-03-03T00:11:20.219Z,1028.31
2018-03-03T00:12:20.197Z,1028.39
2018-03-03T00:13:20.174Z,1028.36
2018-03-03T00:14:20.153Z,1028.38
2018-03-03T00:15:20.135Z,1028.36
2018-03-03T00:16:20.115Z,1028.37
2018-03-03T00:17:20.091Z,1028.41
2018-03-03T00:18:20.072Z,1028.42
2018-03-03T00:19:20.052Z,1028.39
2018-03-03T00:20:20.031Z,1028.41
2018-03-03T00:21:20.012Z,1028.43
2018-03-03T00:22:19.993Z,1028.41
2018-03-03T00:23:19.968Z,1028.41
2018-03-03T00:24:19.946Z,1028.46
2018-03-03T00:25:19.927Z,1028.43
2018-03-03T00:26:19.907Z,1028.44
2018-03-03T00:27:19.884Z,1028.44
2018-03-03T00:28:19.863Z,1028.45
2018-03-03T00:29:19.842Z,1028.43
2018-03-03T00:30:19.822Z,1028.44
2018-03-03T00:31:19.802Z,1028.47
2018-03-03T00:32:19.780Z,1028.48
2018-03-03T00:33:19.760Z,1028.51
2018-03-03T00:34:19.741Z,1028.51
2018-03-03T00:35:19.718Z,1028.5
2018-03-03T00:36:19.698Z,1028.53
2018-03-03T00:37:19.677Z,1028.53
2018-03-03T00:38:19.657Z,1028.54
2018-03-03T00:39:19.635Z,1028.5
2018-03-03T00:40:19.615Z,1028.54
2018-03-03T00:41:19.595Z,1028.59
2018-03-03T00:42:19.572Z,1028.57
2018-03-03T00:43:19.553Z,1028.6
2018-03-03T00:44:19.533Z,1028.63
2018-03-03T00:45:19.512Z,1028.63
2018-03-03T00:46:19.489Z,1028.62
2018-03-03T00:47:19.470Z,1028.66
2018-03-03T00:48:19.449Z,1028.65
2018-03-03T00:49:19.430Z,1028.71
2018-03-03T00:50:19.407Z,1028.65
2018-03-03T00:51:19.386Z,1028.66
2018-03-03T00:52:19.365Z,1028.69
2018-03-03T00:53:19.347Z,1028.77
2018-03-03T00:54:19.324Z,1028.74
2018-03-03T00:55:19.303Z,1028.73
2018-03-03T00:56:19.284Z,1028.8
2018-03-03T00:57:19.260Z,1028.8
2018-03-03T00:58:19.241Z,1028.84
2018-03-03T00:59:19.221Z,1028.79
2018-03-03T01:00:19.198Z,1028.83
2018-03-03T01:01:19.177Z,1028.79
2018-03-03T01:02:19.160Z,1028.75
2018-03-03T01:03:19.136Z,1028.75
2018-03-03T01:04:19.113Z,1028.78
2018-03-03T01:05:19.094Z,1028.88
2018-03-03T01:06:19.072Z,1028.8
2018-03-03T01:07:19.056Z,1028.83
2018-03-03T01:08:19.029Z,1028.82
2018-03-03T01:09:19.010Z,1028.85
2018-03-03T01:10:18.992Z,1028.88
2018-03-03T01:11:18.968Z,1028.84
2018-03-03T01:12:18.947Z,1028.82
2018-03-03T01:13:18.927Z,1028.82
2018-03-03T01:14:18.905Z,1028.82
2018-03-03T01:15:18.885Z,1028.8
2018-03-03T01:16:18.862Z,1028.77
2018-03-03T01:17:18.845Z,1028.76
2018-03-03T01:18:18.821Z,1028.85
2018-03-03T01:19:18.800Z,1028.75
2018-03-03T01:20:18.780Z,1028.77
2018-03-03T01:21:18.759Z,1028.75
2018-03-03T01:22:18.737Z,1028.74
2018-03-03T01:23:18.772Z,1028.69
2018-03-03T01:24:18.696Z,1028.69
2018-03-03T01:25:18.676Z,1028.66
2018-03-03T01:26:18.656Z,1028.65
2018-03-03T01:27:18.633Z,1028.68
2018-03-03T01:28:18.612Z,1028.65
2018-03-03T01:29:18.591Z,1028.63
2018-03-03T01:30:18.569Z,1028.64
2018-03-03T01:31:18.550Z,1028.65
2018-03-03T01:32:18.529Z,1028.68
2018-03-03T01:33:18.508Z,1028.7
2018-03-03T01:34:18.486Z,1028.66
2018-03-03T01:35:18.475Z,1028.74
2018-03-03T01:36:18.443Z,1028.72
2018-03-03T01:37:18.423Z,1028.74
2018-03-03T01:38:18.401Z,1028.75
2018-03-03T01:39:18.381Z,1028.75
2018-03-03T01:40:18.362Z,1028.78
2018-03-03T01:41:18.339Z,1028.81
2018-03-03T01:42:18.318Z,1028.78
2018-03-03T01:43:18.297Z,1028.78
2018-03-03T01:44:18.279Z,1028.81
2018-03-03T01:45:18.255Z,1028.8
2018-03-03T01:46:18.235Z,1028.83
2018-03-03T01:47:18.213Z,1028.89
2018-03-03T01:48:18.191Z,1028.85
2018-03-03T01:49:18.173Z,1028.83
2018-03-03T01:50:18.149Z,1028.84
2018-03-03T01:51:18.131Z,1028.86
2018-03-03T01:52:18.108Z,1028.83
2018-03-03T01:53:18.090Z,1028.85
2018-03-03T01:54:18.066Z,1028.84
2018-03-03T01:55:18.046Z,1028.85
2018-03-03T01:56:18.024Z,1028.84
2018-03-03T01:57:18.003Z,1028.82
2018-03-03T01:58:17.983Z,1028.83
2018-03-03T01:59:17.961Z,1028.79
2018-03-03T02:00:17.941Z,1028.85
2018-03-03T02:01:17.922Z,1028.88
2018-03-03T02:02:17.901Z,1028.93
2018-03-03T02:03:17.877Z,1028.92
2018-03-03T02:04:17.855Z,1029
2018-03-03T02:05:17.859Z,1028.94
2018-03-03T02:06:17.814Z,1029
2018-03-03T02:07:17.792Z,1028.97
2018-03-03T02:08:17.776Z,1028.92
2018-03-03T02:09:17.752Z,1028.91
2018-03-03T02:10:17.729Z,1028.93
2018-03-03T02:11:17.706Z,1028.94
2018-03-03T02:12:17.691Z,1028.91
2018-03-03T02:13:17.666Z,1028.91
2018-03-03T02:14:17.644Z,1028.97
2018-03-03T02:15:17.623Z,1028.98
2018-03-03T02:16:17.603Z,1028.93
2018-03-03T02:17:17.582Z,1028.9
2018-03-03T02:18:17.559Z,1028.92
2018-03-03T02:19:17.540Z,1028.9
2018-03-03T02:20:17.518Z,1028.89
2018-03-03T02:21:17.497Z,1028.88
2018-03-03T02:22:17.476Z,1028.92
2018-03-03T02:23:17.455Z,1028.92
2018-03-03T02:24:17.436Z,1028.93
2018-03-03T02:25:17.412Z,1028.92
2018-03-03T02:26:17.390Z,1028.92
2018-03-03T02:27:17.369Z,1028.87
2018-03-03T02:28:17.352Z,1028.86
2018-03-03T02:29:17.327Z,1028.87
2018-03-03T02:30:17.306Z,1028.84
2018-03-03T02:31:17.287Z,1028.84
2018-03-03T02:32:17.265Z,1028.83
2018-03-03T02:33:17.249Z,1028.82
2018-03-03T02:34:17.223Z,1028.81
2018-03-03T02:35:17.202Z,1028.84
2018-03-03T02:36:17.179Z,1028.83
2018-03-03T02:37:17.158Z,1028.81
2018-03-03T02:38:17.137Z,1028.82
2018-03-03T02:39:17.114Z,1028.83
2018-03-03T02:40:17.095Z,1028.86
2018-03-03T02:41:17.074Z,1028.86
2018-03-03T02:42:17.052Z,1028.92
2018-03-03T02:43:17.029Z,1028.89
2018-03-03T02:44:17.008Z,1028.91
2018-03-03T02:45:16.991Z,1028.96
2018-03-03T02:46:16.967Z,1028.96
2018-03-03T02:47:16.983Z,1028.97
2018-03-03T02:48:16.924Z,1029.03
2018-03-03T02:49:16.903Z,1029.09
2018-03-03T02:50:16.884Z,1029.13
2018-03-03T02:51:16.859Z,1029.19
2018-03-03T02:52:16.841Z,1029.18
2018-03-03T02:53:16.817Z,1029.16
2018-03-03T02:54:16.797Z,1029.2
2018-03-03T02:55:16.775Z,1029.18
2018-03-03T02:56:16.753Z,1029.22
2018-03-03T02:57:16.737Z,1029.28
2018-03-03T02:58:16.715Z,1029.2
2018-03-03T02:59:16.692Z,1029.26
2018-03-03T03:00:16.673Z,1029.28
2018-03-03T03:01:16.646Z,1029.29
2018-03-03T03:02:16.626Z,1029.3
2018-03-03T03:03:16.611Z,1029.34
2018-03-03T03:04:16.582Z,1029.34
2018-03-03T03:05:16.561Z,1029.37
2018-03-03T03:06:16.544Z,1029.35
2018-03-03T03:07:16.519Z,1029.38
2018-03-03T03:08:16.496Z,1029.37
2018-03-03T03:09:16.477Z,1029.38
2018-03-03T03:10:16.453Z,1029.37
2018-03-03T03:11:16.433Z,1029.4
2018-03-03T03:12:16.410Z,1029.4
2018-03-03T03:13:16.388Z,1029.37
2018-03-03T03:14:16.367Z,1029.37
2018-03-03T03:15:16.348Z,1029.39
2018-03-03T03:16:16.325Z,1029.41
2018-03-03T03:17:16.303Z,1029.4
2018-03-03T03:18:16.281Z,1029.39
2018-03-03T03:19:16.259Z,1029.39
2018-03-03T03:20:16.241Z,1029.41
2018-03-03T03:21:16.215Z,1029.36
2018-03-03T03:22:16.195Z,1029.41
2018-03-03T03:23:16.176Z,1029.37
2018-03-03T03:24:16.150Z,1029.37
2018-03-03T03:25:16.129Z,1029.35
2018-03-03T03:26:16.108Z,1029.42
2018-03-03T03:27:16.085Z,1029.4
2018-03-03T03:28:16.065Z,1029.41
2018-03-03T03:29:16.049Z,1029.41
2018-03-03T03:30:16.023Z,1029.39
2018-03-03T03:31:16.003Z,1029.38
2018-03-03T03:32:15.976Z,1029.32
2018-03-03T03:33:15.959Z,1029.28
2018-03-03T03:34:15.934Z,1029.3
2018-03-03T03:35:15.912Z,1029.24
2018-03-03T03:36:15.893Z,1029.26
2018-03-03T03:37:15.870Z,1029.27
2018-03-03T03:38:15.848Z,1029.26
2018-03-03T03:39:15.825Z,1029.26
2018-03-03T03:40:15.805Z,1029.18
2018-03-03T03:41:15.789Z,1029.23
2018-03-03T03:42:15.763Z,1029.27
2018-03-03T03:43:15.748Z,1029.27
2018-03-03T03:44:15.717Z,1029.23
2018-03-03T03:45:15.697Z,1029.25
2018-03-03T03:46:15.678Z,1029.22
2018-03-03T03:47:15.654Z,1029.19
2018-03-03T03:48:15.632Z,1029.21
2018-03-03T03:49:15.609Z,1029.24
2018-03-03T03:50:15.837Z,1029.23
2018-03-03T03:51:15.567Z,1029.27
2018-03-03T03:52:15.546Z,1029.28
2018-03-03T03:53:15.524Z,1029.26
2018-03-03T03:54:15.503Z,1029.29
2018-03-03T03:55:15.488Z,1029.32
2018-03-03T03:56:15.459Z,1029.32
2018-03-03T03:57:15.438Z,1029.27
2018-03-03T03:58:15.417Z,1029.32
2018-03-03T03:59:15.395Z,1029.3
2018-03-03T04:00:15.373Z,1029.34
2018-03-03T04:01:15.353Z,1029.34
2018-03-03T04:02:15.331Z,1029.36
2018-03-03T04:03:15.309Z,1029.34
2018-03-03T04:04:15.291Z,1029.38
2018-03-03T04:05:15.265Z,1029.35
2018-03-03T04:06:15.244Z,1029.33
2018-03-03T04:07:15.225Z,1029.33
2018-03-03T04:08:15.201Z,1029.34
2018-03-03T04:09:15.184Z,1029.32
2018-03-03T04:10:15.167Z,1029.34
2018-03-03T04:11:15.135Z,1029.35
2018-03-03T04:12:15.113Z,1029.34
2018-03-03T04:13:15.101Z,1029.33
2018-03-03T04:14:15.070Z,1029.29
2018-03-03T04:15:15.048Z,1029.3
2018-03-03T04:16:15.031Z,1029.32
2018-03-03T04:17:15.005Z,1029.29
2018-03-03T04:18:15.017Z,1029.34
2018-03-03T04:19:14.961Z,1029.36
2018-03-03T04:20:14.940Z,1029.39
2018-03-03T04:21:14.919Z,1029.4
2018-03-03T04:22:14.897Z,1029.39
2018-03-03T04:23:14.876Z,1029.44
2018-03-03T04:24:14.855Z,1029.41
2018-03-03T04:25:14.830Z,1029.49
2018-03-03T04:26:14.810Z,1029.45
2018-03-03T04:27:14.789Z,1029.47
2018-03-03T04:28:14.766Z,1029.48
2018-03-03T04:29:14.744Z,1029.48
2018-03-03T04:30:14.723Z,1029.52
2018-03-03T04:31:14.700Z,1029.53
2018-03-03T04:32:14.679Z,1029.53
2018-03-03T04:33:14.661Z,1029.49
2018-03-03T04:34:14.635Z,1029.53
2018-03-03T04:35:14.614Z,1029.53
2018-03-03T04:36:14.594Z,1029.58
2018-03-03T04:37:14.570Z,1029.58
2018-03-03T04:38:14.549Z,1029.57
2018-03-03T04:39:14.528Z,1029.62
2018-03-03T04:41:14.485Z,1029.62
2018-03-03T04:42:14.465Z,1029.61
2018-03-03T04:43:14.441Z,1029.64
2018-03-03T04:44:14.418Z,1029.58
2018-03-03T04:45:14.397Z,1029.53
2018-03-03T04:46:14.374Z,1029.55
2018-03-03T04:47:14.353Z,1029.53
2018-03-03T04:48:14.330Z,1029.47
2018-03-03T04:49:14.358Z,1029.45
2018-03-03T04:50:14.288Z,1029.43
2018-03-03T04:51:14.265Z,1029.45
2018-03-03T04:52:14.244Z,1029.45
2018-03-03T04:53:14.222Z,1029.44
2018-03-03T04:54:14.200Z,1029.4
2018-03-03T04:55:14.177Z,1029.45
2018-03-03T04:56:14.156Z,1029.47
2018-03-03T04:57:14.137Z,1029.44
2018-03-03T04:58:14.112Z,1029.43
2018-03-03T04:59:14.089Z,1029.47
2018-03-03T05:00:14.069Z,1029.48
2018-03-03T05:01:14.046Z,1029.54
2018-03-03T05:02:14.024Z,1029.57
2018-03-03T05:03:14.003Z,1029.56
2018-03-03T05:04:13.982Z,1029.5
2018-03-03T05:05:13.959Z,1029.49
2018-03-03T05:06:13.956Z,1029.47
2018-03-03T05:07:13.931Z,1029.4
2018-03-03T05:08:14.112Z,1029.37
2018-03-03T05:09:13.879Z,1029.36
2018-03-03T05:10:13.849Z,1029.36
2018-03-03T05:11:13.829Z,1029.34
2018-03-03T05:12:13.806Z,1029.37
2018-03-03T05:13:13.788Z,1029.35
2018-03-03T05:14:13.842Z,1029.39
2018-03-03T05:15:13.743Z,1029.36
2018-03-03T05:16:13.723Z,1029.35
2018-03-03T05:17:13.699Z,1029.4
2018-03-03T05:18:13.676Z,1029.41
2018-03-03T05:19:13.654Z,1029.4
2018-03-03T05:20:13.630Z,1029.41
2018-03-03T05:21:13.614Z,1029.41
2018-03-03T05:22:13.588Z,1029.42
2018-03-03T05:23:13.566Z,1029.46
2018-03-03T05:24:13.547Z,1029.45
2018-03-03T05:25:13.526Z,1029.47
2018-03-03T05:26:13.500Z,1029.44
2018-03-03T05:27:13.478Z,1029.43
2018-03-03T05:28:13.456Z,1029.45
2018-03-03T05:29:13.437Z,1029.49
2018-03-03T05:30:13.418Z,1029.49
2018-03-03T05:31:13.392Z,1029.49
2018-03-03T05:32:13.370Z,1029.54
2018-03-03T05:33:13.349Z,1029.56
2018-03-03T05:34:13.330Z,1029.52
2018-03-03T05:35:13.304Z,1029.55
2018-03-03T05:36:13.284Z,1029.57
2018-03-03T05:37:13.262Z,1029.54
2018-03-03T05:38:13.238Z,1029.53
2018-03-03T05:39:13.218Z,1029.52
2018-03-03T05:40:13.195Z,1029.55
2018-03-03T05:41:13.175Z,1029.55
2018-03-03T05:42:13.152Z,1029.55
2018-03-03T05:43:13.129Z,1029.52
2018-03-03T05:44:13.109Z,1029.49
2018-03-03T05:45:13.087Z,1029.49
2018-03-03T05:46:13.065Z,1029.48
2018-03-03T05:47:13.043Z,1029.49
2018-03-03T05:48:13.021Z,1029.45
2018-03-03T05:49:12.998Z,1029.45
2018-03-03T05:50:12.976Z,1029.46
2018-03-03T05:51:12.955Z,1029.46
2018-03-03T05:52:12.934Z,1029.5
2018-03-03T05:53:12.912Z,1029.5
2018-03-03T05:54:12.893Z,1029.52
2018-03-03T05:55:12.874Z,1029.52
2018-03-03T05:56:12.845Z,1029.47
2018-03-03T05:57:12.825Z,1029.52
2018-03-03T05:58:12.803Z,1029.46
2018-03-03T05:59:12.805Z,1029.49
2018-03-03T06:00:12.758Z,1029.52
2018-03-03T06:01:12.738Z,1029.51
2018-03-03T06:02:12.716Z,1029.53
2018-03-03T06:03:12.693Z,1029.48
2018-03-03T06:04:12.672Z,1029.53
2018-03-03T06:05:12.651Z,1029.5
2018-03-03T06:06:12.628Z,1029.5
2018-03-03T06:07:12.607Z,1029.48
2018-03-03T06:08:12.587Z,1029.42
2018-03-03T06:09:12.562Z,1029.39
2018-03-03T06:10:12.542Z,1029.38
2018-03-03T06:11:12.521Z,1029.33
2018-03-03T06:12:12.497Z,1029.33
2018-03-03T06:13:12.475Z,1029.3
2018-03-03T06:14:12.474Z,1029.18
2018-03-03T06:15:12.432Z,1029.15
2018-03-03T06:16:12.411Z,1028.97
2018-03-03T06:17:12.388Z,1028.87
2018-03-03T06:18:12.366Z,1028.76
2018-03-03T06:19:12.345Z,1028.63
2018-03-03T06:20:12.324Z,1028.58
2018-03-03T06:21:12.303Z,1028.46
2018-03-03T06:22:12.286Z,1028.43
2018-03-03T06:23:12.259Z,1028.33
2018-03-03T06:24:12.238Z,1028.26
2018-03-03T06:25:12.216Z,1028.22
2018-03-03T06:26:12.195Z,1028.15
2018-03-03T06:27:12.173Z,1028.07
2018-03-03T06:28:12.153Z,1027.95
2018-03-03T06:29:12.164Z,1027.88
2018-03-03T06:30:12.111Z,1027.8
2018-03-03T06:31:12.090Z,1027.72
2018-03-03T06:32:12.069Z,1027.6
2018-03-03T06:33:12.046Z,1027.47
2018-03-03T06:34:12.027Z,1027.42
2018-03-03T06:35:12.007Z,1027.23
2018-03-03T06:36:11.986Z,1027.14
2018-03-03T06:37:11.964Z,1026.95
2018-03-03T06:38:11.944Z,1026.86
2018-03-03T06:39:11.925Z,1026.7
2018-03-03T06:40:11.905Z,1026.53
2018-03-03T06:41:11.883Z,1026.4
2018-03-03T06:42:11.863Z,1026.2
2018-03-03T06:43:11.851Z,1026.06
2018-03-03T06:44:11.822Z,1026.02
2018-03-03T06:45:11.802Z,1025.97
2018-03-03T06:46:11.824Z,1025.89
2018-03-03T06:47:11.767Z,1025.83
2018-03-03T06:48:11.743Z,1025.78
2018-03-03T06:49:11.725Z,1025.64
2018-03-03T06:50:11.707Z,1025.57
2018-03-03T06:51:11.686Z,1025.51
2018-03-03T06:52:11.667Z,1025.46
2018-03-03T06:53:11.647Z,1025.34
2018-03-03T06:54:11.630Z,1025.22
2018-03-03T06:55:11.607Z,1025.16
2018-03-03T06:56:11.592Z,1025.14
2018-03-03T06:57:11.572Z,1025
2018-03-03T06:58:11.553Z,1024.91
2018-03-03T06:59:11.533Z,1024.93
2018-03-03T07:00:11.515Z,1024.78
2018-03-03T07:01:11.498Z,1024.79
2018-03-03T07:02:11.478Z,1024.62
2018-03-03T07:03:11.460Z,1024.58
2018-03-03T07:04:11.443Z,1024.58
2018-03-03T07:05:11.426Z,1024.51
2018-03-03T07:06:11.405Z,1024.46
2018-03-03T07:07:11.388Z,1024.32
2018-03-03T07:08:11.377Z,1024.33
2018-03-03T07:09:11.351Z,1024.23
2018-03-03T07:10:11.333Z,1024.19
2018-03-03T07:11:11.315Z,1024.1
2018-03-03T07:12:11.299Z,1023.95
2018-03-03T07:13:11.280Z,1023.76
2018-03-03T07:14:11.263Z,1023.63
2018-03-03T07:15:11.246Z,1023.46
2018-03-03T07:16:11.229Z,1023.44
2018-03-03T07:17:11.209Z,1023.17
2018-03-03T07:18:11.192Z,1023.03
2018-03-03T07:19:11.176Z,1022.9
2018-03-03T07:20:11.158Z,1022.7
2018-03-03T07:21:11.142Z,1022.65
2018-03-03T07:22:11.125Z,1022.56
2018-03-03T07:23:11.108Z,1022.43
2018-03-03T07:24:11.090Z,1022.38
2018-03-03T07:25:11.074Z,1022.14
2018-03-03T07:26:11.056Z,1022.15
2018-03-03T07:27:11.040Z,1022.08
2018-03-03T07:28:11.025Z,1022.09
2018-03-03T07:29:11.008Z,1022.07
2018-03-03T07:30:10.996Z,1022.25
2018-03-03T07:31:10.980Z,1022.19
2018-03-03T07:32:10.958Z,1022.21
2018-03-03T07:33:10.945Z,1022.28
2018-03-03T07:34:10.927Z,1022.27
2018-03-03T07:35:10.913Z,1022.4
2018-03-03T07:36:10.895Z,1022.37
2018-03-03T07:37:10.886Z,1022.39
2018-03-03T07:38:10.862Z,1022.42
2018-03-03T07:39:10.846Z,1022.48
2018-03-03T07:40:10.832Z,1022.5
2018-03-03T07:41:10.814Z,1022.49
2018-03-03T07:42:10.799Z,1022.49
2018-03-03T07:43:10.782Z,1022.46
2018-03-03T07:44:10.765Z,1022.44
2018-03-03T07:45:10.751Z,1022.5
2018-03-03T07:46:10.735Z,1022.54
2018-03-03T07:47:10.719Z,1022.52
2018-03-03T07:48:10.702Z,1022.48
2018-03-03T07:49:10.687Z,1022.4
2018-03-03T07:50:10.678Z,1022.38
2018-03-03T07:51:10.654Z,1022.32
2018-03-03T07:52:10.640Z,1022.31
2018-03-03T07:53:10.624Z,1022.25
2018-03-03T07:54:10.606Z,1022.28
2018-03-03T07:55:10.590Z,1022.31
2018-03-03T07:56:10.579Z,1022.25
2018-03-03T07:57:10.560Z,1022.26
2018-03-03T07:58:10.544Z,1022.37
2018-03-03T07:59:10.527Z,1022.51
2018-03-03T08:00:10.517Z,1022.83
2018-03-03T08:01:10.495Z,1023.29
2018-03-03T08:02:10.480Z,1023.62
2018-03-03T08:03:10.465Z,1023.98
2018-03-03T08:04:10.451Z,1024.28
2018-03-03T08:05:10.430Z,1024.38
2018-03-03T08:06:10.414Z,1024.51
2018-03-03T08:07:10.402Z,1024.57
2018-03-03T08:08:10.379Z,1024.72
2018-03-03T08:09:10.364Z,1024.82
2018-03-03T08:10:10.347Z,1024.88
2018-03-03T08:11:10.330Z,1025
2018-03-03T08:12:10.312Z,1025.13
2018-03-03T08:13:10.295Z,1025.32
2018-03-03T08:14:10.278Z,1025.58
2018-03-03T08:15:10.262Z,1025.58
2018-03-03T08:16:10.242Z,1025.73
2018-03-03T08:17:10.225Z,1025.75
2018-03-03T08:18:10.206Z,1025.76
2018-03-03T08:19:10.188Z,1025.73
2018-03-03T08:20:10.171Z,1025.79
2018-03-03T08:21:10.153Z,1025.78
2018-03-03T08:22:10.135Z,1025.81
2018-03-03T08:23:10.115Z,1025.81
2018-03-03T08:24:10.100Z,1025.8
2018-03-03T08:25:10.080Z,1025.91
2018-03-03T08:26:10.060Z,1025.93
2018-03-03T08:27:10.049Z,1025.85
2018-03-03T08:28:10.023Z,1025.86
2018-03-03T08:29:10.005Z,1025.87
2018-03-03T08:30:09.985Z,1025.81
2018-03-03T08:31:09.983Z,1025.8
2018-03-03T08:32:09.949Z,1025.74
2018-03-03T08:33:09.930Z,1025.74
2018-03-03T08:34:09.910Z,1025.76
2018-03-03T08:35:09.891Z,1025.75
2018-03-03T08:36:09.872Z,1025.78
2018-03-03T08:37:09.855Z,1025.76
2018-03-03T08:38:09.836Z,1025.73
2018-03-03T08:39:09.818Z,1025.68
2018-03-03T08:40:09.799Z,1025.68
2018-03-03T08:41:09.779Z,1025.66
2018-03-03T08:42:09.761Z,1025.68
2018-03-03T08:43:09.742Z,1025.63
2018-03-03T08:44:09.723Z,1025.54
2018-03-03T08:45:09.703Z,1025.49
2018-03-03T08:46:09.686Z,1025.47
2018-03-03T08:47:09.668Z,1025.44
2018-03-03T08:48:09.648Z,1025.38
2018-03-03T08:49:09.629Z,1025.35
2018-03-03T08:50:09.610Z,1025.31
2018-03-03T08:51:09.591Z,1025.35
2018-03-03T08:52:09.573Z,1025.38
2018-03-03T08:53:09.554Z,1025.39
2018-03-03T08:54:09.536Z,1025.41
2018-03-03T08:55:09.518Z,1025.43
2018-03-03T08:56:09.498Z,1025.52
2018-03-03T08:57:09.481Z,1025.47
2018-03-03T08:58:09.463Z,1025.49
2018-03-03T08:59:09.488Z,1025.5
2018-03-03T09:00:09.424Z,1025.45
2018-03-03T09:01:09.405Z,1025.49
2018-03-03T09:02:09.388Z,1025.54
2018-03-03T09:03:09.368Z,1025.53
2018-03-03T09:04:09.351Z,1025.52
2018-03-03T09:05:09.332Z,1025.52
2018-03-03T09:06:09.314Z,1025.48
2018-03-03T09:07:09.295Z,1025.45
2018-03-03T09:08:09.276Z,1025.36
2018-03-03T09:09:09.257Z,1025.35
2018-03-03T09:10:09.276Z,1025.34
2018-03-03T09:11:09.219Z,1025.53
2018-03-03T09:12:09.207Z,1025.35
2018-03-03T09:13:09.184Z,1025.33
2018-03-03T09:14:09.164Z,1025.29
2018-03-03T09:15:09.146Z,1025.26
2018-03-03T09:16:09.127Z,1025.15
2018-03-03T09:17:09.111Z,1025.16
2018-03-03T09:18:09.092Z,1025.14
2018-03-03T09:19:09.072Z,1025.06
2018-03-03T09:20:09.055Z,1025.09
2018-03-03T09:21:09.035Z,1025.1
2018-03-03T09:22:09.018Z,1025.04
2018-03-03T09:23:08.999Z,1025.03
2018-03-03T09:24:08.981Z,1024.97
2018-03-03T09:25:08.962Z,1024.95
2018-03-03T09:26:08.945Z,1024.97
2018-03-03T09:27:08.927Z,1025.04
2018-03-03T09:28:08.923Z,1024.88
2018-03-03T09:29:08.892Z,1024.91
2018-03-03T09:30:08.871Z,1024.86
2018-03-03T09:31:08.853Z,1024.85
2018-03-03T09:32:08.836Z,1024.89
2018-03-03T09:33:08.822Z,1024.91
2018-03-03T09:34:08.801Z,1024.94
2018-03-03T09:35:08.783Z,1025.02
2018-03-03T09:36:08.762Z,1024.93
2018-03-03T09:37:08.744Z,1024.82
2018-03-03T09:38:08.731Z,1024.84
2018-03-03T09:39:08.709Z,1024.84
2018-03-03T09:40:08.692Z,1024.84
2018-03-03T09:41:08.673Z,1024.82
2018-03-03T09:42:08.655Z,1024.8
2018-03-03T09:43:08.638Z,1024.75
2018-03-03T09:44:08.631Z,1024.68
2018-03-03T09:45:08.602Z,1024.74
2018-03-03T09:46:08.623Z,1024.71
2018-03-03T09:47:08.564Z,1024.75
2018-03-03T09:48:08.551Z,1024.71
2018-03-03T09:49:08.529Z,1024.62
2018-03-03T09:50:08.511Z,1024.62
2018-03-03T09:51:08.495Z,1024.59
2018-03-03T09:52:08.477Z,1024.68
2018-03-03T09:53:08.459Z,1024.57
2018-03-03T09:54:08.441Z,1024.61
2018-03-03T09:55:08.423Z,1024.59
2018-03-03T09:56:08.406Z,1024.63
2018-03-03T09:57:08.389Z,1024.62
2018-03-03T09:58:08.369Z,1024.64
2018-03-03T09:59:08.352Z,1024.66
2018-03-03T10:00:08.334Z,1024.62
2018-03-03T10:01:08.320Z,1024.54
2018-03-03T10:02:08.298Z,1024.5
2018-03-03T10:03:08.283Z,1024.56
2018-03-03T10:04:08.264Z,1024.5
2018-03-03T10:05:08.245Z,1024.49
2018-03-03T10:06:08.227Z,1024.53
2018-03-03T10:07:08.211Z,1024.54
2018-03-03T10:08:08.194Z,1024.52
2018-03-03T10:09:08.176Z,1024.47
2018-03-03T10:10:08.157Z,1024.51
2018-03-03T10:11:08.141Z,1024.5
2018-03-03T10:12:08.123Z,1024.53
2018-03-03T10:13:08.105Z,1024.52
2018-03-03T10:14:08.088Z,1024.55
2018-03-03T10:15:08.072Z,1024.59
2018-03-03T10:16:08.055Z,1024.46
2018-03-03T10:17:08.035Z,1024.48
2018-03-03T10:18:08.018Z,1024.48
2018-03-03T10:19:08.003Z,1024.42
2018-03-03T10:20:07.981Z,1024.41
2018-03-03T10:21:07.963Z,1024.37
2018-03-03T10:22:07.955Z,1024.33
2018-03-03T10:23:07.928Z,1024.35
2018-03-03T10:24:07.916Z,1024.24
2018-03-03T10:25:07.895Z,1024.26
2018-03-03T10:26:07.876Z,1024.27
2018-03-03T10:27:07.858Z,1024.16
2018-03-03T10:28:07.841Z,1024.14
2018-03-03T10:29:07.823Z,1024.14
2018-03-03T10:30:07.806Z,1024.09
2018-03-03T10:31:07.790Z,1024.08
2018-03-03T10:32:07.771Z,1024.04
2018-03-03T10:33:07.815Z,1023.98
2018-03-03T10:34:07.737Z,1024.02
2018-03-03T10:35:07.718Z,1023.94
2018-03-03T10:36:07.702Z,1023.95
2018-03-03T10:37:07.684Z,1023.89
2018-03-03T10:38:07.672Z,1023.81
2018-03-03T10:39:07.651Z,1023.8
2018-03-03T10:40:07.634Z,1023.81
2018-03-03T10:41:07.616Z,1023.78
2018-03-03T10:42:07.599Z,1023.81
2018-03-03T10:43:07.580Z,1023.9
2018-03-03T10:44:07.564Z,1023.75
2018-03-03T10:45:07.549Z,1023.82
2018-03-03T10:46:07.528Z,1023.75
2018-03-03T10:47:07.521Z,1023.83
2018-03-03T10:48:07.496Z,1023.78
2018-03-03T10:49:07.478Z,1023.71
2018-03-03T10:50:07.467Z,1023.72
2018-03-03T10:51:07.446Z,1023.74
2018-03-03T10:52:07.426Z,1023.72
2018-03-03T10:53:07.410Z,1023.74
2018-03-03T10:54:07.408Z,1023.7
2018-03-03T10:55:07.381Z,1023.61
2018-03-03T10:56:07.359Z,1023.66
2018-03-03T10:57:07.344Z,1023.61
2018-03-03T10:58:07.326Z,1023.62
2018-03-03T10:59:07.308Z,1023.49
2018-03-03T11:00:07.292Z,1023.53
2018-03-03T11:01:07.274Z,1023.57
2018-03-03T11:02:07.260Z,1023.55
2018-03-03T11:03:07.240Z,1023.53
2018-03-03T11:04:07.223Z,1023.49
2018-03-03T11:05:07.206Z,1023.44
2018-03-03T11:06:07.190Z,1023.34
2018-03-03T11:07:07.172Z,1023.43
2018-03-03T11:08:07.156Z,1023.34
2018-03-03T11:09:07.141Z,1023.31
2018-03-03T11:10:07.127Z,1023.12
2018-03-03T11:11:07.107Z,1023.41
2018-03-03T11:12:07.089Z,1023.37
2018-03-03T11:13:07.072Z,1023.28
2018-03-03T11:14:07.055Z,1023.31
2018-03-03T11:15:07.039Z,1023.28
2018-03-03T11:16:07.020Z,1023.3
2018-03-03T11:17:07.058Z,1023.43
2018-03-03T11:18:06.987Z,1023.23
2018-03-03T11:19:06.971Z,1023.33
2018-03-03T11:20:06.954Z,1023.2
2018-03-03T11:21:06.938Z,1023.19
2018-03-03T11:22:06.920Z,1023.16
2018-03-03T11:23:06.903Z,1023.16
2018-03-03T11:24:06.888Z,1023.23
2018-03-03T11:25:06.872Z,1023.18
2018-03-03T11:26:06.853Z,1023.17
2018-03-03T11:27:06.837Z,1023.15
2018-03-03T11:28:06.820Z,1023.18
2018-03-03T11:29:06.802Z,1023.17
2018-03-03T11:30:06.789Z,1023.2
2018-03-03T11:31:06.771Z,1023.14
2018-03-03T11:32:06.756Z,1023.08
2018-03-03T11:33:06.741Z,1023.05
2018-03-03T11:34:06.720Z,1022.99
2018-03-03T11:35:06.705Z,1022.91
2018-03-03T11:36:06.688Z,1022.99
2018-03-03T11:37:06.669Z,1022.91
2018-03-03T11:38:06.653Z,1022.97
2018-03-03T11:39:06.636Z,1022.95
2018-03-03T11:40:06.619Z,1022.98
2018-03-03T11:41:06.603Z,1022.98
2018-03-03T11:42:06.587Z,1022.97
2018-03-03T11:43:06.573Z,1022.97
2018-03-03T11:44:06.554Z,1022.97
2018-03-03T11:45:06.538Z,1023
2018-03-03T11:46:06.520Z,1023.04
2018-03-03T11:47:06.506Z,1022.95
2018-03-03T11:48:06.490Z,1022.99
2018-03-03T11:49:06.473Z,1023.01
2018-03-03T11:50:06.456Z,1023.03
2018-03-03T11:51:06.439Z,1023.07
2018-03-03T11:52:06.425Z,1022.94
2018-03-03T11:53:06.406Z,1022.89
2018-03-03T11:54:06.391Z,1023.01
2018-03-03T11:55:06.374Z,1022.92
2018-03-03T11:56:06.357Z,1022.94
2018-03-03T11:57:06.342Z,1022.84
2018-03-03T11:58:06.325Z,1022.84
2018-03-03T11:59:06.309Z,1022.83
2018-03-03T12:00:06.291Z,1022.94
2018-03-03T12:01:06.277Z,1022.83
2018-03-03T12:02:06.260Z,1022.76
2018-03-03T12:03:06.246Z,1022.9
2018-03-03T12:04:06.231Z,1022.87
2018-03-03T12:05:06.210Z,1022.89
2018-03-03T12:06:06.193Z,1022.91
2018-03-03T12:07:06.178Z,1022.9
2018-03-03T12:08:06.175Z,1022.91
2018-03-03T12:09:06.145Z,1022.83